Ana Sayfa
METAR-TAF:

METAR-TAF

Havaalanları :

Pontianak, Endonezya

Enlem: 00-09S, Boylam: 109-24E, yükseklik: 3 m

Güncel hava durumu gözlemi

Rapor saat 05:00 UTC de 22 saat ve 1 dakika önce yapıldı.
Rüzgar doğu/güneydoğudan 6 kt
Sıcaklık 31°C
Nem 52%
Basınç 1008 hPa
Görüş mesafesi 10 km veya daha fazla
1200 ft yükseklikte parçalı bulutlu

METAR: WIOO 170500Z 11006KT 9999 SCT012 31/20 Q1008 NOSIG

Saat: 10:01 (03:01 UTC)


TAF: eksik

4.000'den fazla havaalanı için hava durumu gözlemleri ve tahminleri (METAR ve TAF raporları).

Kullanılabilir istasyonlar harita üzerinde sarı ve kırmızı noktalarla gösterilir.

İstasyonun adını görmek için fareyi noktanın üzerinde gezdirin.

Sonrasında hava gözlem ve tahminlerini görmek için tıklayın.

Haritayı değiştirmek için: yaklaştırmak için siyah artı işaretli yeşil düğmeye ve uzaklaştırmak için de eksi işaretli düğmeye hızla tıklayın; bitişik haritalar için yeşil okları kullanın.


METAR-TAF: